createdAt,value
2019-03-17T00:01:36.512Z,3.83
2019-03-17T00:04:10.986Z,4.07
2019-03-17T00:06:42.766Z,3.80
2019-03-17T00:09:14.603Z,2.30
2019-03-17T00:11:46.528Z,2.40
2019-03-17T00:14:21.273Z,4.17
2019-03-17T00:16:53.036Z,3.87
2019-03-17T00:19:27.499Z,3.27
2019-03-17T00:21:59.877Z,2.40
2019-03-17T00:24:31.779Z,2.00
2019-03-17T00:27:05.485Z,2.07
2019-03-17T00:29:36.932Z,3.30
2019-03-17T00:32:11.231Z,4.00
2019-03-17T00:34:44.458Z,4.77
2019-03-17T00:37:16.694Z,2.80
2019-03-17T00:39:49.008Z,2.13
2019-03-17T00:42:21.240Z,2.97
2019-03-17T00:44:52.950Z,7.30
2019-03-17T00:47:24.765Z,7.07
2019-03-17T00:49:56.760Z,8.10
2019-03-17T00:52:28.528Z,12.43
2019-03-17T00:55:00.414Z,12.10
2019-03-17T00:57:32.226Z,15.53
2019-03-17T01:00:05.143Z,17.23
2019-03-17T01:02:37.125Z,14.10
2019-03-17T01:05:09.059Z,5.23
2019-03-17T01:07:42.260Z,3.40
2019-03-17T01:10:14.884Z,7.87
2019-03-17T01:12:46.676Z,11.27
2019-03-17T01:15:18.416Z,7.70
2019-03-17T01:17:51.775Z,10.77
2019-03-17T01:20:23.491Z,14.57
2019-03-17T01:22:55.166Z,7.27
2019-03-17T01:25:26.912Z,5.87
2019-03-17T01:27:58.640Z,4.10
2019-03-17T01:30:30.337Z,4.33
2019-03-17T01:33:02.295Z,3.33
2019-03-17T01:35:34.245Z,3.40
2019-03-17T01:38:07.776Z,3.17
2019-03-17T01:40:39.399Z,2.93
2019-03-17T01:43:11.115Z,3.20
2019-03-17T01:45:47.435Z,4.47
2019-03-17T01:48:19.805Z,5.50
2019-03-17T01:50:51.639Z,5.63
2019-03-17T01:53:25.001Z,6.40
2019-03-17T01:55:56.671Z,6.10
2019-03-17T01:58:28.419Z,5.13
2019-03-17T02:01:00.062Z,5.63
2019-03-17T02:03:32.058Z,4.20
2019-03-17T02:06:03.904Z,4.07
2019-03-17T02:08:37.005Z,4.27
2019-03-17T02:11:08.860Z,4.23
2019-03-17T02:13:40.575Z,7.30
2019-03-17T02:16:12.281Z,6.47
2019-03-17T02:18:44.023Z,2.93
2019-03-17T02:21:15.531Z,2.40
2019-03-17T02:23:47.323Z,2.67
2019-03-17T02:26:19.138Z,2.20
2019-03-17T02:28:50.973Z,2.30
2019-03-17T02:31:22.660Z,2.17
2019-03-17T02:33:54.442Z,2.07
2019-03-17T02:36:26.325Z,1.70
2019-03-17T02:38:58.197Z,1.87
2019-03-17T02:41:31.781Z,2.07
2019-03-17T02:44:03.521Z,2.90
2019-03-17T02:46:35.365Z,2.30
2019-03-17T02:49:07.158Z,2.00
2019-03-17T02:51:40.448Z,2.07
2019-03-17T02:54:12.190Z,2.57
2019-03-17T02:56:43.864Z,2.17
2019-03-17T02:59:15.568Z,2.90
2019-03-17T03:01:47.227Z,3.27
2019-03-17T03:04:19.060Z,4.00
2019-03-17T03:06:50.933Z,2.77
2019-03-17T03:09:22.773Z,2.90
2019-03-17T03:11:54.562Z,3.43
2019-03-17T03:14:26.536Z,2.87
2019-03-17T03:16:58.269Z,3.60
2019-03-17T03:19:30.942Z,3.00
2019-03-17T03:22:02.766Z,3.00
2019-03-17T03:24:34.678Z,3.27
2019-03-17T03:27:07.894Z,3.40
2019-03-17T03:29:41.835Z,3.70
2019-03-17T03:32:13.561Z,3.37
2019-03-17T03:34:45.399Z,2.60
2019-03-17T03:37:17.220Z,2.93
2019-03-17T03:39:49.048Z,5.57
2019-03-17T03:42:20.877Z,5.63
2019-03-17T03:44:52.589Z,7.03
2019-03-17T03:47:24.334Z,6.17
2019-03-17T03:49:57.278Z,6.17
2019-03-17T03:52:29.310Z,6.57
2019-03-17T03:55:03.788Z,8.47
2019-03-17T03:57:35.504Z,9.33
2019-03-17T04:00:07.671Z,9.70
2019-03-17T04:02:39.502Z,11.00
2019-03-17T04:05:11.254Z,12.37
2019-03-17T04:07:43.042Z,14.00
2019-03-17T04:10:16.170Z,13.73
2019-03-17T04:12:48.338Z,13.63
2019-03-17T04:15:20.188Z,15.70
2019-03-17T04:17:52.013Z,13.27
2019-03-17T04:20:23.849Z,13.73
2019-03-17T04:22:55.639Z,15.73
2019-03-17T04:25:27.639Z,12.83
2019-03-17T04:27:59.442Z,12.47
2019-03-17T04:30:31.246Z,8.27
2019-03-17T04:33:03.281Z,7.77
2019-03-17T04:35:35.029Z,7.13
2019-03-17T04:38:06.853Z,6.57
2019-03-17T04:40:38.738Z,6.73
2019-03-17T04:43:10.524Z,4.20
2019-03-17T04:45:42.289Z,3.57
2019-03-17T04:48:14.029Z,3.30
2019-03-17T04:50:45.999Z,2.30
2019-03-17T04:53:17.782Z,2.30
2019-03-17T04:55:49.585Z,3.40
2019-03-17T04:58:22.842Z,3.50
2019-03-17T05:00:54.493Z,3.00
2019-03-17T05:03:26.340Z,2.27
2019-03-17T05:05:58.183Z,2.67
2019-03-17T05:08:30.088Z,2.00
2019-03-17T05:11:02.208Z,2.63
2019-03-17T05:13:34.004Z,3.13
2019-03-17T05:16:05.925Z,2.60
2019-03-17T05:18:40.126Z,2.40
2019-03-17T05:21:11.892Z,1.83
2019-03-17T05:23:43.665Z,1.70
2019-03-17T05:26:15.382Z,1.87
2019-03-17T05:28:47.267Z,2.60
2019-03-17T05:31:19.073Z,2.27
2019-03-17T05:33:52.376Z,2.40
2019-03-17T05:36:24.751Z,2.23
2019-03-17T05:38:56.500Z,2.53
2019-03-17T05:41:28.414Z,2.43
2019-03-17T05:44:00.159Z,2.80
2019-03-17T05:46:31.902Z,2.43
2019-03-17T05:49:03.718Z,2.13
2019-03-17T05:51:36.701Z,2.77
2019-03-17T05:54:08.420Z,2.50
2019-03-17T05:56:40.138Z,4.10
2019-03-17T05:59:12.004Z,4.23
2019-03-17T06:01:44.047Z,1.73
2019-03-17T06:04:17.141Z,2.40
2019-03-17T06:06:48.883Z,2.43
2019-03-17T06:09:20.608Z,1.70
2019-03-17T06:11:52.362Z,1.33
2019-03-17T06:14:24.170Z,3.00
2019-03-17T06:16:56.092Z,5.10
2019-03-17T06:19:27.804Z,1.80
2019-03-17T06:22:00.626Z,2.10
2019-03-17T06:24:33.201Z,2.47
2019-03-17T06:27:05.080Z,1.53
2019-03-17T06:29:38.313Z,1.57
2019-03-17T06:32:10.385Z,2.20
2019-03-17T06:34:42.294Z,2.00
2019-03-17T06:37:14.110Z,2.93
2019-03-17T06:39:45.802Z,2.50
2019-03-17T06:42:17.529Z,3.43
2019-03-17T06:44:49.399Z,2.17
2019-03-17T06:47:21.174Z,2.40
2019-03-17T06:49:54.658Z,2.93
2019-03-17T06:52:26.366Z,3.20
2019-03-17T06:54:58.159Z,3.53
2019-03-17T06:57:29.817Z,2.40
2019-03-17T07:00:01.483Z,2.03
2019-03-17T07:02:33.402Z,2.90
2019-03-17T07:05:05.364Z,2.40
2019-03-17T07:07:43.920Z,3.37
2019-03-17T07:10:10.901Z,3.10
2019-03-17T07:12:43.123Z,1.77
2019-03-17T07:15:15.189Z,2.00
2019-03-17T07:17:46.982Z,1.90
2019-03-17T07:20:18.652Z,3.60
2019-03-17T07:22:50.535Z,2.30
2019-03-17T07:25:22.407Z,2.40
2019-03-17T07:27:54.156Z,3.00
2019-03-17T07:30:26.016Z,1.93
2019-03-17T07:33:00.520Z,1.53
2019-03-17T07:35:32.275Z,2.70
2019-03-17T07:38:04.071Z,2.40
2019-03-17T07:40:35.919Z,1.83
2019-03-17T07:43:07.749Z,2.07
2019-03-17T07:45:40.625Z,1.60
2019-03-17T07:48:15.071Z,1.57
2019-03-17T07:50:46.844Z,1.27
2019-03-17T07:53:18.819Z,1.67
2019-03-17T07:55:50.620Z,1.50
2019-03-17T07:58:22.282Z,1.63
2019-03-17T08:00:54.038Z,1.87
2019-03-17T08:03:25.971Z,1.87
2019-03-17T08:05:59.028Z,1.23
2019-03-17T08:08:30.932Z,1.30
2019-03-17T08:11:02.737Z,2.00
2019-03-17T08:13:34.642Z,1.57
2019-03-17T08:16:06.432Z,2.10
2019-03-17T08:18:38.113Z,2.80
2019-03-17T08:21:09.972Z,1.50
2019-03-17T08:23:41.832Z,2.90
2019-03-17T08:26:13.681Z,1.80
2019-03-17T08:28:45.696Z,1.70
2019-03-17T08:31:17.552Z,0.97
2019-03-17T08:33:49.497Z,1.00
2019-03-17T08:36:21.260Z,1.10
2019-03-17T08:38:53.199Z,1.50
2019-03-17T08:41:24.888Z,1.30
2019-03-17T08:43:57.634Z,1.17
2019-03-17T08:46:29.519Z,1.83
2019-03-17T08:49:04.248Z,1.20
2019-03-17T08:51:36.138Z,1.00
2019-03-17T08:54:08.124Z,0.73
2019-03-17T08:56:40.015Z,1.20
2019-03-17T08:59:14.973Z,1.27
2019-03-17T09:01:47.721Z,1.23
2019-03-17T09:04:19.917Z,0.93
2019-03-17T09:06:51.682Z,1.20
2019-03-17T09:09:23.532Z,1.20
2019-03-17T09:11:55.260Z,4.07
2019-03-17T09:14:28.574Z,0.90
2019-03-17T09:17:13.448Z,1.60
2019-03-17T09:19:34.056Z,1.13
2019-03-17T09:22:05.858Z,1.20
2019-03-17T09:24:40.064Z,1.23
2019-03-17T09:27:11.846Z,1.20
2019-03-17T09:29:43.789Z,0.90
2019-03-17T09:32:15.623Z,1.17
2019-03-17T09:34:47.529Z,1.23
2019-03-17T09:37:19.439Z,1.40
2019-03-17T09:39:51.175Z,0.87
2019-03-17T09:42:22.897Z,1.00
2019-03-17T09:44:54.817Z,1.43
2019-03-17T09:47:28.377Z,0.90
2019-03-17T09:50:00.382Z,1.20
2019-03-17T09:52:32.318Z,1.70
2019-03-17T09:55:04.284Z,2.10
2019-03-17T09:57:36.137Z,1.33
2019-03-17T10:00:08.876Z,1.30
2019-03-17T10:02:40.746Z,1.00
2019-03-17T10:05:12.853Z,1.77
2019-03-17T10:07:44.806Z,1.90
2019-03-17T10:10:16.926Z,1.30
2019-03-17T10:12:51.407Z,1.30
2019-03-17T10:15:23.103Z,1.00
2019-03-17T10:17:54.929Z,1.80
2019-03-17T10:20:26.771Z,1.13
2019-03-17T10:22:58.715Z,1.63
2019-03-17T10:25:30.449Z,2.37
2019-03-17T10:28:02.375Z,2.57
2019-03-17T10:30:34.145Z,2.00
2019-03-17T10:33:06.064Z,1.50
2019-03-17T10:35:37.851Z,1.47
2019-03-17T10:38:09.498Z,2.20
2019-03-17T10:40:41.215Z,2.33
2019-03-17T10:43:12.971Z,3.00
2019-03-17T10:45:44.890Z,1.97
2019-03-17T10:48:18.960Z,2.30
2019-03-17T10:50:53.339Z,2.40
2019-03-17T10:53:25.195Z,2.10
2019-03-17T10:55:56.953Z,2.40
2019-03-17T10:58:29.981Z,2.23
2019-03-17T11:01:01.794Z,1.93
2019-03-17T11:03:34.746Z,2.03
2019-03-17T11:06:06.533Z,2.17
2019-03-17T11:08:38.273Z,2.70
2019-03-17T11:11:12.137Z,2.60
2019-03-17T11:13:43.735Z,2.30
2019-03-17T11:16:15.464Z,2.70
2019-03-17T11:18:48.419Z,2.57
2019-03-17T11:21:20.429Z,3.13
2019-03-17T11:23:52.618Z,2.43
2019-03-17T11:26:24.403Z,2.97
2019-03-17T11:28:56.154Z,2.60
2019-03-17T11:31:27.859Z,3.90
2019-03-17T11:34:00.042Z,2.90
2019-03-17T11:36:31.978Z,2.17
2019-03-17T11:39:03.849Z,2.20
2019-03-17T11:41:35.585Z,2.00
2019-03-17T11:44:07.265Z,1.77
2019-03-17T11:46:39.227Z,2.00
2019-03-17T11:49:11.174Z,2.37
2019-03-17T11:51:43.085Z,1.80
2019-03-17T11:54:14.905Z,2.50
2019-03-17T11:56:47.020Z,1.93
2019-03-17T11:59:18.719Z,1.83
2019-03-17T12:01:51.096Z,4.83
2019-03-17T12:04:22.761Z,1.87
2019-03-17T12:06:57.448Z,3.83
2019-03-17T12:09:29.507Z,1.93
2019-03-17T12:12:03.210Z,2.97
2019-03-17T12:14:35.232Z,1.80
2019-03-17T12:17:08.475Z,1.70
2019-03-17T12:19:40.329Z,1.83
2019-03-17T12:22:12.154Z,2.03
2019-03-17T12:24:43.919Z,1.77
2019-03-17T12:27:15.660Z,5.13
2019-03-17T12:29:47.356Z,15.00
2019-03-17T12:32:19.104Z,8.17
2019-03-17T12:34:50.943Z,7.37
2019-03-17T12:37:22.848Z,6.43
2019-03-17T12:40:02.540Z,4.17
2019-03-17T12:42:28.214Z,2.07
2019-03-17T12:45:02.890Z,2.43
2019-03-17T12:47:37.179Z,1.10
2019-03-17T12:50:08.158Z,2.00
2019-03-17T12:52:42.131Z,5.20
2019-03-17T12:55:13.753Z,2.43
2019-03-17T12:57:46.851Z,8.90
2019-03-17T13:00:20.472Z,10.60
2019-03-17T13:02:52.303Z,4.47
2019-03-17T13:05:24.269Z,24.00
2019-03-17T13:07:56.317Z,3.73
2019-03-17T13:10:28.144Z,5.47
2019-03-17T13:13:00.054Z,5.03
2019-03-17T13:15:37.151Z,2.83
2019-03-17T13:18:09.094Z,4.23
2019-03-17T13:20:41.023Z,1.40
2019-03-17T13:23:12.880Z,9.73
2019-03-17T13:25:44.721Z,14.37
2019-03-17T13:28:16.444Z,1.53
2019-03-17T13:30:48.311Z,6.13
2019-03-17T13:33:20.087Z,4.17
2019-03-17T13:35:51.866Z,3.20
2019-03-17T13:38:23.704Z,6.20
2019-03-17T13:40:55.618Z,3.53
2019-03-17T13:43:27.620Z,1.43
2019-03-17T13:45:59.408Z,1.33
2019-03-17T13:48:31.169Z,1.63
2019-03-17T13:51:03.039Z,1.90
2019-03-17T13:53:35.062Z,1.57
2019-03-17T13:56:06.923Z,2.87
2019-03-17T13:58:39.808Z,2.77
2019-03-17T14:01:11.633Z,4.27
2019-03-17T14:03:44.684Z,3.63
2019-03-17T14:06:16.520Z,3.83
2019-03-17T14:08:50.965Z,5.73
2019-03-17T14:11:22.807Z,5.67
2019-03-17T14:13:54.603Z,3.97
2019-03-17T14:16:26.585Z,4.63
2019-03-17T14:18:58.409Z,3.20
2019-03-17T14:21:30.251Z,3.33
2019-03-17T14:24:03.250Z,3.03
2019-03-17T14:26:35.146Z,3.00
2019-03-17T14:29:07.124Z,3.50
2019-03-17T14:31:38.907Z,3.77
2019-03-17T14:34:11.022Z,2.93
2019-03-17T14:36:42.738Z,3.33
2019-03-17T14:39:14.646Z,2.93
2019-03-17T14:41:46.614Z,3.60
2019-03-17T14:44:19.058Z,3.77
2019-03-17T14:46:55.338Z,3.30
2019-03-17T14:49:27.071Z,3.63
2019-03-17T14:51:58.761Z,3.20
2019-03-17T14:54:30.714Z,2.73
2019-03-17T14:57:02.414Z,2.73
2019-03-17T14:59:38.161Z,2.33
2019-03-17T15:02:09.986Z,2.10
2019-03-17T15:04:41.744Z,2.57
2019-03-17T15:07:13.533Z,4.60
2019-03-17T15:09:45.424Z,3.30
2019-03-17T15:12:23.891Z,3.73
2019-03-17T15:14:55.779Z,3.23
2019-03-17T15:17:27.688Z,3.70
2019-03-17T15:19:59.387Z,5.20
2019-03-17T15:22:35.205Z,7.30
2019-03-17T15:25:07.716Z,7.50
2019-03-17T15:27:41.850Z,6.33
2019-03-17T15:30:18.936Z,7.87
2019-03-17T15:32:50.686Z,5.73
2019-03-17T15:35:22.400Z,5.70
2019-03-17T15:37:54.331Z,5.20
2019-03-17T15:40:28.701Z,7.10
2019-03-17T15:43:00.474Z,6.07
2019-03-17T15:45:32.452Z,4.50
2019-03-17T15:48:04.528Z,4.93
2019-03-17T15:50:40.671Z,8.73
2019-03-17T15:53:12.765Z,7.60
2019-03-17T15:55:44.636Z,5.40
2019-03-17T15:58:18.034Z,4.10
2019-03-17T16:00:51.261Z,4.33
2019-03-17T16:03:23.029Z,4.47
2019-03-17T16:05:56.262Z,5.73
2019-03-17T16:08:29.901Z,4.00
2019-03-17T16:11:01.915Z,4.03
2019-03-17T16:13:33.809Z,6.50
2019-03-17T16:16:06.009Z,4.47
2019-03-17T16:18:37.943Z,5.07
2019-03-17T16:21:09.756Z,5.10
2019-03-17T16:23:42.316Z,5.33
2019-03-17T16:26:14.069Z,6.47
2019-03-17T16:28:45.885Z,4.80
2019-03-17T16:33:49.653Z,5.73
2019-03-17T16:36:21.564Z,8.33
2019-03-17T16:38:54.852Z,7.43
2019-03-17T16:41:26.549Z,5.50
2019-03-17T16:43:58.386Z,5.37
2019-03-17T16:46:30.123Z,4.37
2019-03-17T16:49:01.903Z,5.70
2019-03-17T16:51:33.771Z,4.37
2019-03-17T16:54:05.613Z,6.57
2019-03-17T16:56:37.503Z,7.57
2019-03-17T16:59:10.423Z,5.50
2019-03-17T17:01:45.044Z,9.10
2019-03-17T17:04:19.843Z,13.27
2019-03-17T17:06:53.293Z,11.20
2019-03-17T17:09:25.147Z,13.00
2019-03-17T17:11:57.532Z,10.00
2019-03-17T17:14:29.646Z,8.50
2019-03-17T17:17:01.543Z,8.33
2019-03-17T17:19:33.862Z,9.37
2019-03-17T17:22:05.740Z,5.90
2019-03-17T17:24:37.766Z,5.53
2019-03-17T17:27:09.607Z,6.23
2019-03-17T17:29:41.409Z,4.77
2019-03-17T17:32:13.150Z,5.37
2019-03-17T17:34:45.133Z,4.77
2019-03-17T17:37:17.004Z,4.80
2019-03-17T17:39:48.898Z,4.20
2019-03-17T17:42:22.919Z,5.97
2019-03-17T17:44:54.749Z,4.87
2019-03-17T17:47:26.547Z,5.93
2019-03-17T17:49:58.374Z,6.27
2019-03-17T17:52:30.014Z,5.23
2019-03-17T17:55:04.839Z,4.77
2019-03-17T17:57:36.757Z,4.40
2019-03-17T18:00:12.657Z,6.47
2019-03-17T18:02:44.420Z,5.93
2019-03-17T18:05:16.713Z,4.93
2019-03-17T18:07:48.463Z,4.47
2019-03-17T18:10:20.522Z,3.30
2019-03-17T18:12:52.398Z,6.07
2019-03-17T18:15:24.289Z,6.03
2019-03-17T18:17:57.773Z,4.10
2019-03-17T18:20:29.686Z,5.50
2019-03-17T18:23:01.455Z,5.47
2019-03-17T18:25:33.297Z,6.07
2019-03-17T18:28:06.118Z,4.83
2019-03-17T18:30:37.973Z,3.80
2019-03-17T18:33:09.874Z,6.47
2019-03-17T18:35:41.629Z,10.53
2019-03-17T18:38:13.422Z,5.20
2019-03-17T18:40:46.730Z,5.07
2019-03-17T18:43:18.620Z,4.17
2019-03-17T18:45:50.536Z,6.10
2019-03-17T18:48:23.771Z,6.17
2019-03-17T18:50:55.668Z,6.37
2019-03-17T18:53:30.472Z,5.97
2019-03-17T18:56:02.328Z,6.77
2019-03-17T19:01:03.377Z,5.67
2019-03-17T19:03:36.384Z,8.00
2019-03-17T19:06:09.752Z,6.83
2019-03-17T19:08:42.791Z,4.67
2019-03-17T19:11:15.896Z,5.37
2019-03-17T19:13:50.143Z,10.00
2019-03-17T19:16:22.079Z,11.17
2019-03-17T19:18:55.489Z,13.27
2019-03-17T19:21:27.246Z,12.57
2019-03-17T19:23:58.981Z,10.77
2019-03-17T19:26:30.779Z,8.97
2019-03-17T19:29:05.116Z,7.90
2019-03-17T19:31:37.275Z,6.67
2019-03-17T19:34:09.140Z,6.60
2019-03-17T19:36:41.063Z,6.33
2019-03-17T19:39:13.014Z,4.70
2019-03-17T19:41:44.783Z,6.27
2019-03-17T19:44:17.604Z,5.50
2019-03-17T19:46:49.731Z,5.23
2019-03-17T19:49:21.763Z,5.40
2019-03-17T19:51:52.601Z,4.57
2019-03-17T19:54:24.390Z,4.83
2019-03-17T19:56:56.133Z,5.67
2019-03-17T19:59:29.255Z,13.10
2019-03-17T20:02:00.999Z,15.13
2019-03-17T20:04:35.583Z,11.73
2019-03-17T20:07:09.021Z,5.33
2019-03-17T20:09:40.779Z,10.27
2019-03-17T20:12:12.519Z,7.93
2019-03-17T20:14:46.682Z,7.90
2019-03-17T20:17:20.323Z,6.67
2019-03-17T20:19:52.165Z,7.07
2019-03-17T20:22:24.115Z,5.57
2019-03-17T20:24:55.949Z,6.03
2019-03-17T20:27:30.684Z,6.43
2019-03-17T20:30:01.111Z,5.83
2019-03-17T20:32:33.147Z,5.87
2019-03-17T20:35:11.398Z,6.20
2019-03-17T20:37:46.314Z,8.17
2019-03-17T20:40:18.053Z,6.30
2019-03-17T20:42:51.205Z,5.80
2019-03-17T20:45:26.193Z,4.60
2019-03-17T20:47:58.156Z,5.40
2019-03-17T20:50:30.004Z,6.63
2019-03-17T20:53:01.967Z,8.30
2019-03-17T20:55:33.982Z,9.20
2019-03-17T20:58:05.726Z,9.00
2019-03-17T21:00:37.469Z,8.13
2019-03-17T21:03:09.501Z,5.57
2019-03-17T21:05:42.516Z,7.03
2019-03-17T21:08:14.481Z,8.80
2019-03-17T21:10:44.998Z,7.83
2019-03-17T21:13:16.798Z,6.90
2019-03-17T21:15:48.691Z,7.37
2019-03-17T21:18:20.595Z,7.10
2019-03-17T21:20:52.491Z,7.03
2019-03-17T21:23:24.859Z,6.37
2019-03-17T21:25:56.704Z,7.67
2019-03-17T21:28:30.714Z,7.00
2019-03-17T21:31:02.582Z,8.07
2019-03-17T21:33:34.835Z,6.00
2019-03-17T21:36:08.682Z,6.60
2019-03-17T21:38:42.228Z,6.53
2019-03-17T21:41:14.103Z,7.03
2019-03-17T21:43:58.508Z,7.97
2019-03-17T21:46:20.441Z,8.27
2019-03-17T21:48:54.818Z,10.47
2019-03-17T21:51:28.161Z,10.63
2019-03-17T21:54:02.190Z,8.60
2019-03-17T21:56:33.846Z,9.73
2019-03-17T21:59:06.437Z,9.43
2019-03-17T22:01:38.290Z,12.70
2019-03-17T22:04:10.243Z,10.10
2019-03-17T22:06:42.086Z,11.43
2019-03-17T22:09:17.085Z,9.80
2019-03-17T22:11:47.741Z,8.03
2019-03-17T22:14:20.710Z,10.27
2019-03-17T22:16:52.448Z,8.53
2019-03-17T22:19:24.481Z,12.20
2019-03-17T22:21:58.270Z,8.07
2019-03-17T22:24:31.444Z,11.17
2019-03-17T22:27:03.447Z,9.70
2019-03-17T22:29:35.354Z,8.23
2019-03-17T22:32:07.191Z,9.57
2019-03-17T22:34:38.952Z,9.77
2019-03-17T22:37:13.635Z,7.60
2019-03-17T22:39:46.965Z,6.10
2019-03-17T22:42:18.800Z,6.40
2019-03-17T22:44:50.638Z,13.40
2019-03-17T22:47:22.886Z,9.83
2019-03-17T22:49:55.194Z,9.37
2019-03-17T22:52:27.084Z,10.10
2019-03-17T22:54:58.813Z,7.63
2019-03-17T22:57:30.652Z,13.30
2019-03-17T23:00:02.504Z,10.90
2019-03-17T23:02:34.912Z,5.90
2019-03-17T23:05:06.842Z,5.53
2019-03-17T23:07:38.749Z,19.47
2019-03-17T23:10:11.289Z,16.73
2019-03-17T23:12:45.593Z,18.27
2019-03-17T23:15:17.449Z,23.17
2019-03-17T23:17:49.305Z,7.67
2019-03-17T23:20:22.110Z,5.80
2019-03-17T23:22:54.495Z,10.07
2019-03-17T23:25:27.097Z,27.60
2019-03-17T23:28:00.490Z,64.97
2019-03-17T23:33:03.113Z,6.50
2019-03-17T23:35:34.896Z,4.90
2019-03-17T23:38:25.707Z,26.43
2019-03-17T23:40:58.868Z,30.93
2019-03-17T23:43:30.821Z,11.97
2019-03-17T23:46:07.139Z,9.53
2019-03-17T23:48:38.875Z,16.87
2019-03-17T23:51:12.102Z,13.70
2019-03-17T23:53:44.057Z,10.43
2019-03-17T23:56:17.429Z,11.57
2019-03-17T23:58:49.233Z,13.63
